Time;durP1;ratioP1;P1;durP2;ratioP2;P2;SDS_P1;SDS_P2;PMS_P1;PMS_P2;Temp;Humidity;BMP_temperature;BMP_pressure;BME280_temperature;BME280_humidity;BME280_pressure;Samples;Min_cycle;Max_cycle;Signal;HPM_P1;HPM_P2
2023/04/11 00:02:23;;;;;;;4.85;1.23;;;6.90;99.90;;;;;;5032135;28;20057;-72
2023/04/11 00:04:53;;;;;;;6.03;1.60;;;6.90;99.90;;;;;;5031677;28;20056;-72
2023/04/11 00:07:20;;;;;;;4.18;1.20;;;6.90;99.90;;;;;;5030866;28;20049;-72
2023/04/11 00:09:45;;;;;;;6.55;1.50;;;6.90;99.90;;;;;;5032018;28;20042;-73
2023/04/11 00:12:11;;;;;;;3.85;1.30;;;6.90;99.90;;;;;;5024579;28;20036;-73
2023/04/11 00:14:37;;;;;;;6.20;1.58;;;6.90;99.90;;;;;;5022966;28;20571;-73
2023/04/11 00:17:02;;;;;;;3.63;1.35;;;6.90;99.90;;;;;;5023339;28;20045;-72
2023/04/11 00:19:28;;;;;;;3.20;1.35;;;6.90;99.90;;;;;;5023084;28;20069;-72
2023/04/11 00:21:57;;;;;;;3.72;1.15;;;6.90;99.90;;;;;;5022582;28;20363;-72
2023/04/11 00:24:26;;;;;;;3.15;1.10;;;6.80;99.90;;;;;;5031385;27;20120;-72
2023/04/11 00:26:52;;;;;;;3.80;1.20;;;6.80;99.90;;;;;;5026475;28;20124;-73
2023/04/11 00:29:18;;;;;;;4.50;1.83;;;6.70;99.90;;;;;;5026495;27;20053;-73
2023/04/11 00:31:43;;;;;;;9.77;3.10;;;6.70;99.90;;;;;;5024282;27;20050;-73
2023/04/11 00:34:09;;;;;;;10.80;3.60;;;6.60;99.90;;;;;;5026309;28;20475;-73
2023/04/11 00:36:34;;;;;;;7.60;2.70;;;6.60;99.90;;;;;;5023058;28;20041;-73
2023/04/11 00:39:00;;;;;;;5.75;2.30;;;6.50;99.90;;;;;;5089502;27;20078;-73
2023/04/11 00:41:26;;;;;;;6.93;2.72;;;6.40;99.90;;;;;;5073264;28;20045;-71
2023/04/11 00:43:53;;;;;;;5.75;2.20;;;6.40;99.90;;;;;;5024755;28;20049;-71
2023/04/11 00:46:20;;;;;;;5.50;2.00;;;6.40;99.90;;;;;;5021825;28;20105;-71
2023/04/11 00:48:46;;;;;;;4.72;1.50;;;6.30;99.90;;;;;;5022479;28;20033;-71
2023/04/11 00:51:13;;;;;;;7.28;1.88;;;6.30;99.90;;;;;;5019887;27;20061;-71
2023/04/11 00:53:39;;;;;;;8.23;2.03;;;6.30;99.90;;;;;;5019594;28;20502;-71
2023/04/11 00:56:05;;;;;;;5.47;1.42;;;6.20;99.90;;;;;;5091103;27;20056;-71
2023/04/11 00:58:32;;;;;;;5.65;1.60;;;6.20;99.90;;;;;;5024196;27;20380;-71
2023/04/11 01:00:59;;;;;;;5.78;1.60;;;6.10;99.90;;;;;;5021322;28;20049;-71
2023/04/11 01:03:25;;;;;;;3.00;1.50;;;6.10;99.90;;;;;;5023956;28;20064;-72
2023/04/11 01:05:52;;;;;;;4.57;1.67;;;6.00;99.90;;;;;;5023308;28;20136;-73
2023/04/11 01:08:20;;;;;;;5.00;1.50;;;6.00;99.90;;;;;;5024066;28;20041;-72
2023/04/11 01:10:45;;;;;;;5.00;1.80;;;6.00;99.90;;;;;;5022587;28;20127;-72
2023/04/11 01:13:11;;;;;;;4.60;1.65;;;6.00;99.90;;;;;;5022884;28;20436;-71
2023/04/11 01:15:37;;;;;;;2.50;1.10;;;6.00;99.90;;;;;;5022087;28;20448;-72
2023/04/11 01:18:04;;;;;;;4.15;1.73;;;6.00;99.90;;;;;;5022408;28;20041;-72
2023/04/11 01:20:30;;;;;;;4.22;1.85;;;6.00;99.90;;;;;;5023804;28;20376;-73
2023/04/11 01:22:58;;;;;;;6.30;1.90;;;6.10;99.90;;;;;;5004708;28;20042;-73
2023/04/11 01:25:24;;;;;;;4.72;2.03;;;6.20;99.90;;;;;;5000048;28;20041;-73
2023/04/11 01:27:49;;;;;;;6.05;2.00;;;6.20;99.90;;;;;;5025060;28;20042;-73
2023/04/11 01:30:15;;;;;;;4.82;1.88;;;6.20;99.90;;;;;;5024570;28;20068;-73
2023/04/11 01:32:41;;;;;;;6.57;2.20;;;6.20;99.90;;;;;;5021874;28;20398;-73
2023/04/11 01:35:09;;;;;;;6.38;2.45;;;6.20;99.90;;;;;;5007304;28;20049;-75
2023/04/11 01:37:34;;;;;;;6.10;2.40;;;6.20;99.90;;;;;;5023672;27;20048;-73
2023/04/11 01:40:01;;;;;;;5.35;2.22;;;6.10;99.90;;;;;;5008452;28;20113;-72
2023/04/11 01:42:28;;;;;;;7.43;2.42;;;6.10;99.90;;;;;;5020685;27;20494;-73
2023/04/11 01:44:55;;;;;;;6.68;2.30;;;6.10;99.90;;;;;;5018398;28;20041;-73
2023/04/11 01:47:21;;;;;;;7.38;2.30;;;6.10;99.90;;;;;;5018728;27;20403;-73
2023/04/11 01:49:48;;;;;;;11.77;2.60;;;6.00;99.90;;;;;;5020204;28;20094;-73
2023/04/11 01:52:13;;;;;;;7.80;2.50;;;6.10;99.90;;;;;;5019054;27;20053;-73
2023/04/11 01:54:39;;;;;;;8.15;3.15;;;6.20;99.90;;;;;;5002680;28;20407;-73
2023/04/11 01:57:05;;;;;;;10.18;2.97;;;6.20;99.90;;;;;;5017671;27;20076;-73
2023/04/11 01:59:31;;;;;;;9.85;3.00;;;6.20;99.90;;;;;;5017174;28;20053;-71
2023/04/11 02:01:56;;;;;;;10.88;3.00;;;6.20;99.90;;;;;;5018600;27;20090;-71
2023/04/11 02:04:22;;;;;;;14.68;3.78;;;6.30;99.90;;;;;;5019306;28;20053;-71
2023/04/11 02:06:48;;;;;;;10.75;3.40;;;6.30;99.90;;;;;;5119948;27;20147;-71
2023/04/11 02:09:13;;;;;;;11.63;3.55;;;6.30;99.90;;;;;;5020993;28;20041;-71
2023/04/11 02:11:39;;;;;;;9.88;4.03;;;6.30;99.90;;;;;;5017859;28;20034;-71
2023/04/11 02:14:05;;;;;;;10.38;3.15;;;6.40;99.90;;;;;;5085354;28;20045;-71
2023/04/11 02:16:30;;;;;;;16.55;3.85;;;6.50;99.90;;;;;;5085305;27;20041;-71
2023/04/11 02:18:56;;;;;;;12.07;3.65;;;6.50;99.90;;;;;;5018494;28;20529;-71
2023/04/11 02:21:22;;;;;;;12.40;3.60;;;6.50;99.90;;;;;;5018957;28;20038;-70
2023/04/11 02:23:48;;;;;;;16.40;3.90;;;6.60;99.90;;;;;;5080526;27;20161;-70
2023/04/11 02:26:13;;;;;;;15.18;3.88;;;6.60;99.90;;;;;;5017627;28;20376;-71
2023/04/11 02:28:39;;;;;;;13.80;3.60;;;6.70;99.90;;;;;;5024381;27;20060;-71
2023/04/11 02:31:05;;;;;;;15.80;4.05;;;6.70;99.90;;;;;;5025299;27;20037;-71
2023/04/11 02:33:31;;;;;;;12.27;4.00;;;6.70;99.90;;;;;;5020392;28;20060;-71
2023/04/11 02:35:56;;;;;;;13.60;3.80;;;6.70;99.90;;;;;;5087515;28;20054;-71
2023/04/11 02:38:22;;;;;;;16.02;3.63;;;6.80;99.90;;;;;;5022821;28;20034;-70
2023/04/11 02:40:48;;;;;;;14.65;2.97;;;6.90;99.90;;;;;;5022685;28;20073;-70
2023/04/11 02:43:15;;;;;;;14.63;3.80;;;6.90;99.90;;;;;;5021963;28;20052;-70
2023/04/11 02:45:40;;;;;;;11.85;3.40;;;7.00;99.90;;;;;;5023818;28;20049;-70
2023/04/11 02:48:07;;;;;;;14.45;3.50;;;7.00;99.90;;;;;;5024301;28;20050;-70
2023/04/11 02:50:32;;;;;;;11.80;3.00;;;7.00;99.90;;;;;;5093276;28;20038;-70
2023/04/11 02:52:58;;;;;;;16.35;3.67;;;7.10;99.90;;;;;;5025065;28;20064;-71
2023/04/11 02:55:24;;;;;;;12.98;3.33;;;7.10;99.90;;;;;;5025885;28;20410;-70
2023/04/11 02:57:50;;;;;;;20.52;4.00;;;7.10;99.90;;;;;;5026958;28;20049;-71
2023/04/11 03:00:18;;;;;;;18.77;4.45;;;7.50;99.90;;;;;;5024164;28;20038;-71
2023/04/11 03:02:44;;;;;;;17.80;3.83;;;7.20;99.90;;;;;;5026387;28;20033;-71
2023/04/11 03:05:10;;;;;;;13.98;3.40;;;7.30;99.90;;;;;;5024296;28;20075;-70
2023/04/11 03:07:37;;;;;;;17.00;3.83;;;7.30;99.90;;;;;;5089987;28;20041;-70
2023/04/11 03:10:03;;;;;;;18.50;4.18;;;;;;;;;;5024053;28;20049;-71
2023/04/11 03:12:29;;;;;;;22.98;4.53;;;7.30;99.90;;;;;;5026337;28;20042;-70
2023/04/11 03:14:55;;;;;;;23.92;4.88;;;7.40;99.90;;;;;;5025052;28;20128;-70
2023/04/11 03:17:20;;;;;;;21.60;5.60;;;7.40;99.90;;;;;;5025339;28;20208;-70
2023/04/11 03:19:46;;;;;;;25.77;7.55;;;7.40;99.90;;;;;;5022113;28;20472;-71
2023/04/11 03:22:12;;;;;;;28.83;7.15;;;7.40;99.90;;;;;;5026206;28;20033;-70
2023/04/11 03:24:40;;;;;;;22.70;6.30;;;7.40;99.90;;;;;;5024276;28;20052;-70
2023/04/11 03:27:06;;;;;;;22.58;5.10;;;7.40;99.90;;;;;;5025095;28;20026;-70
2023/04/11 03:29:32;;;;;;;22.65;4.85;;;7.40;99.90;;;;;;5020714;28;20117;-71
2023/04/11 03:31:58;;;;;;;27.15;4.85;;;7.30;99.90;;;;;;5093703;28;20044;-70
2023/04/11 03:34:25;;;;;;;22.17;5.13;;;7.30;99.90;;;;;;5022900;28;20037;-70
2023/04/11 03:36:51;;;;;;;27.67;5.63;;;7.30;99.90;;;;;;5021976;28;20073;-70
2023/04/11 03:39:18;;;;;;;23.38;5.40;;;7.30;99.90;;;;;;5022628;28;20096;-70
2023/04/11 03:41:44;;;;;;;31.67;6.40;;;7.30;99.90;;;;;;5025845;28;20463;-70
2023/04/11 03:44:09;;;;;;;26.73;6.53;;;7.30;99.90;;;;;;5029140;27;20076;-70
2023/04/11 03:51:38;;;;;;;24.95;8.40;;;7.40;99.90;;;;;;5021384;28;20098;-50
2023/04/11 03:54:04;;;;;;;28.23;7.20;;;7.40;99.90;;;;;;5026532;28;20053;-51
2023/04/11 03:56:29;;;;;;;28.75;8.40;;;7.40;99.90;;;;;;5024669;28;20473;-50
2023/04/11 03:58:55;;;;;;;31.52;9.10;;;7.40;99.90;;;;;;5029174;28;20056;-49
2023/04/11 04:01:21;;;;;;;28.13;8.48;;;7.40;99.90;;;;;;5023302;28;20038;-53
2023/04/11 04:03:46;;;;;;;31.02;9.25;;;7.30;99.90;;;;;;5026908;28;20033;-49
2023/04/11 04:06:12;;;;;;;36.15;8.43;;;7.30;99.90;;;;;;5029482;28;20500;-51
2023/04/11 04:08:38;;;;;;;33.90;10.02;;;7.40;99.90;;;;;;5028295;28;20073;-51
2023/04/11 04:11:04;;;;;;;20.98;6.05;;;7.40;99.90;;;;;;5023516;28;20502;-49
2023/04/11 04:13:29;;;;;;;24.98;6.00;;;7.40;99.90;;;;;;5018006;28;20089;-50
2023/04/11 04:15:56;;;;;;;25.10;5.38;;;7.40;99.90;;;;;;5019769;28;20494;-50
2023/04/11 04:18:22;;;;;;;19.57;5.40;;;7.40;99.90;;;;;;5025745;28;20052;-49
2023/04/11 04:20:48;;;;;;;21.77;5.55;;;7.40;99.90;;;;;;5029595;28;20045;-50
2023/04/11 04:23:16;;;;;;;23.33;5.40;;;7.50;99.90;;;;;;5024078;28;20094;-52
2023/04/11 04:25:46;;;;;;;17.70;3.92;;;7.40;99.90;;;;;;5025142;28;20046;-51
2023/04/11 04:28:13;;;;;;;14.23;3.55;;;7.50;99.90;;;;;;5023353;28;20402;-50
2023/04/11 04:30:39;;;;;;;16.63;3.55;;;7.50;99.90;;;;;;5022852;28;20383;-49
2023/04/11 04:33:04;;;;;;;15.02;3.50;;;7.50;99.90;;;;;;5022130;28;20033;-49
2023/04/11 04:35:30;;;;;;;10.93;3.38;;;7.50;99.90;;;;;;5023513;28;20037;-51
2023/04/11 04:37:55;;;;;;;13.00;3.67;;;7.50;99.90;;;;;;5022909;28;20037;-49
2023/04/11 04:40:21;;;;;;;12.85;3.50;;;7.50;99.90;;;;;;5022657;28;20068;-49
2023/04/11 04:42:56;;;;;;;12.50;3.30;;;7.50;99.90;;;;;;5022862;28;20062;-50
2023/04/11 04:45:22;;;;;;;13.38;3.80;;;7.50;99.90;;;;;;5023387;28;20045;-50
2023/04/11 04:47:48;;;;;;;17.30;3.25;;;7.50;99.90;;;;;;5022505;28;20054;-52
2023/04/11 04:50:14;;;;;;;14.45;3.58;;;7.50;99.90;;;;;;5098583;27;20059;-49
2023/04/11 04:52:40;;;;;;;10.05;3.10;;;7.50;99.90;;;;;;5116056;27;20118;-50
2023/04/11 04:55:06;;;;;;;11.45;3.10;;;7.50;99.90;;;;;;5110404;27;20046;-50
2023/04/11 04:57:31;;;;;;;12.93;3.22;;;7.40;99.90;;;;;;5111990;27;20473;-49
2023/04/11 04:59:57;;;;;;;12.10;3.17;;;7.40;99.90;;;;;;5093491;27;20047;-50
2023/04/11 05:02:26;;;;;;;9.32;3.53;;;7.40;99.90;;;;;;5121678;27;20043;-49
2023/04/11 05:04:53;;;;;;;9.80;3.53;;;7.30;99.90;;;;;;5114497;27;20496;-49
2023/04/11 05:07:19;;;;;;;12.82;3.28;;;7.30;99.90;;;;;;5118306;27;20035;-49
2023/04/11 05:09:45;;;;;;;12.93;3.38;;;7.30;99.90;;;;;;5113974;27;20473;-49
2023/04/11 05:12:12;;;;;;;11.18;3.70;;;7.40;99.90;;;;;;5120156;27;20031;-49
2023/04/11 05:14:38;;;;;;;13.07;3.70;;;7.40;99.90;;;;;;5121088;27;20039;-50
2023/04/11 05:17:04;;;;;;;8.95;3.03;;;7.30;99.90;;;;;;5121937;27;20400;-49
2023/04/11 05:19:31;;;;;;;13.32;3.00;;;7.40;99.90;;;;;;5113131;27;20044;-50
2023/04/11 05:21:56;;;;;;;11.82;3.53;;;7.30;99.90;;;;;;5114169;27;20048;-48
2023/04/11 05:24:22;;;;;;;11.50;3.20;;;7.40;99.90;;;;;;5116451;27;20039;-50
2023/04/11 05:26:48;;;;;;;11.40;3.30;;;7.40;99.90;;;;;;5112222;27;20039;-49
2023/04/11 05:29:13;;;;;;;12.50;3.10;;;7.40;99.90;;;;;;5111539;27;20043;-49
2023/04/11 05:31:39;;;;;;;10.10;4.05;;;7.50;99.90;;;;;;5117878;27;20495;-50
2023/04/11 05:34:04;;;;;;;14.82;3.83;;;7.50;99.90;;;;;;5121079;27;20046;-49
2023/04/11 05:36:30;;;;;;;12.05;3.08;;;7.40;99.90;;;;;;5116022;27;20072;-48
2023/04/11 05:38:56;;;;;;;10.18;3.42;;;7.50;99.90;;;;;;5116543;27;20064;-50
2023/04/11 05:41:21;;;;;;;17.73;3.70;;;7.50;99.90;;;;;;5116755;27;20118;-50
2023/04/11 05:43:47;;;;;;;8.18;3.30;;;7.60;99.90;;;;;;5117792;27;20165;-48
2023/04/11 05:46:13;;;;;;;11.73;3.33;;;7.60;99.90;;;;;;5120583;27;20044;-49
2023/04/11 05:48:38;;;;;;;12.25;2.60;;;7.60;99.90;;;;;;5117706;27;20087;-50
2023/04/11 05:51:04;;;;;;;10.15;2.50;;;7.70;99.90;;;;;;5101137;27;20050;-49
2023/04/11 05:53:30;;;;;;;8.70;2.90;;;7.80;99.90;;;;;;5121111;27;20043;-51
2023/04/11 05:55:56;;;;;;;9.18;2.30;;;7.90;99.90;;;;;;5115204;27;20051;-52
2023/04/11 05:58:23;;;;;;;10.77;2.40;;;7.80;99.90;;;;;;5117938;27;20103;-50
2023/04/11 06:00:49;;;;;;;8.20;2.40;;;7.90;99.90;;;;;;5117288;27;20477;-49
2023/04/11 06:03:15;;;;;;;11.95;3.08;;;7.90;99.90;;;;;;5118158;27;20501;-50
2023/04/11 06:05:41;;;;;;;8.27;2.38;;;7.90;99.90;;;;;;5117978;27;20038;-50
2023/04/11 06:08:07;;;;;;;8.32;2.40;;;8.00;99.90;;;;;;5119473;27;20054;-51
2023/04/11 06:10:34;;;;;;;9.20;2.38;;;8.10;99.90;;;;;;5119210;27;20440;-52
2023/04/11 06:13:00;;;;;;;9.27;2.15;;;8.20;99.90;;;;;;5117318;27;20047;-49
2023/04/11 06:15:26;;;;;;;10.82;2.13;;;8.20;99.90;;;;;;5116359;27;20039;-52
2023/04/11 06:17:52;;;;;;;7.53;2.45;;;8.30;99.90;;;;;;5119354;27;20039;-49
2023/04/11 06:20:19;;;;;;;9.35;2.53;;;8.30;99.90;;;;;;5117521;27;20108;-49
2023/04/11 06:22:45;;;;;;;7.55;1.92;;;8.30;99.90;;;;;;5101246;27;20687;-51
2023/04/11 06:25:12;;;;;;;8.55;2.10;;;8.20;99.90;;;;;;5101402;27;20043;-50
2023/04/11 06:27:37;;;;;;;7.32;2.28;;;8.20;99.90;;;;;;5107255;27;20047;-49
2023/04/11 06:30:04;;;;;;;11.10;2.58;;;8.10;99.90;;;;;;5108806;28;20488;-49
2023/04/11 06:32:29;;;;;;;7.60;2.15;;;8.10;99.90;;;;;;5109768;27;20563;-50
2023/04/11 06:34:55;;;;;;;11.70;2.20;;;8.10;99.90;;;;;;5107949;28;20130;-51
2023/04/11 06:37:22;;;;;;;12.13;2.22;;;8.20;99.90;;;;;;5109518;27;20504;-49
2023/04/11 06:39:47;;;;;;;9.15;2.40;;;8.30;99.90;;;;;;5110146;28;20043;-50
2023/04/11 06:42:13;;;;;;;9.38;2.50;;;8.40;99.90;;;;;;5102842;28;20043;-50
2023/04/11 06:44:38;;;;;;;7.40;2.42;;;8.40;99.90;;;;;;5106247;28;20044;-52
2023/04/11 06:47:04;;;;;;;9.10;2.28;;;8.40;99.90;;;;;;5105794;28;20051;-49
2023/04/11 06:49:31;;;;;;;9.52;2.15;;;8.40;99.90;;;;;;5106777;28;20086;-49
2023/04/11 06:51:58;;;;;;;11.70;2.42;;;8.50;99.90;;;;;;5110941;28;20045;-50
2023/04/11 06:54:23;;;;;;;11.73;2.33;;;8.60;99.90;;;;;;5109108;28;20043;-50
2023/04/11 06:56:50;;;;;;;8.60;1.95;;;8.60;99.90;;;;;;5106999;28;20492;-50
2023/04/11 06:59:20;;;;;;;7.20;1.98;;;8.60;99.90;;;;;;5103647;28;20054;-50
2023/04/11 07:01:46;;;;;;;9.65;1.90;;;8.60;99.90;;;;;;5107480;28;20506;-49
2023/04/11 07:04:12;;;;;;;8.55;2.13;;;8.50;99.90;;;;;;5104272;28;20432;-49
2023/04/11 07:06:38;;;;;;;9.05;2.28;;;8.60;99.90;;;;;;5104291;28;20071;-50
2023/04/11 07:09:04;;;;;;;13.50;2.50;;;8.90;99.90;;;;;;5106564;28;20416;-49
2023/04/11 07:11:30;;;;;;;7.93;2.00;;;9.20;99.90;;;;;;5086142;28;20485;-51
2023/04/11 07:13:57;;;;;;;12.20;2.78;;;9.20;99.90;;;;;;5105098;28;20047;-49
2023/04/11 07:16:24;;;;;;;7.88;2.00;;;9.20;99.90;;;;;;5112705;27;21563;-50
2023/04/11 07:18:50;;;;;;;8.65;2.05;;;9.10;99.90;;;;;;5092174;28;20053;-52
2023/04/11 07:21:15;;;;;;;9.35;2.15;;;9.00;99.90;;;;;;5113003;27;20039;-53
2023/04/11 07:23:42;;;;;;;10.65;2.17;;;9.00;99.90;;;;;;5112161;27;20036;-49
2023/04/11 07:26:09;;;;;;;13.57;2.22;;;8.90;99.90;;;;;;5109413;27;20503;-50
2023/04/11 07:28:39;;;;;;;8.93;1.95;;;9.00;99.90;;;;;;5106835;27;20441;-49
2023/04/11 07:31:08;;;;;;;9.90;2.13;;;9.00;99.90;;;;;;5104051;27;20048;-53
2023/04/11 07:33:36;;;;;;;13.13;2.40;;;9.10;99.90;;;;;;5105693;28;20065;-52
2023/04/11 07:36:02;;;;;;;8.18;1.63;;;9.10;99.90;;;;;;5101095;27;20044;-50
2023/04/11 07:38:28;;;;;;;12.95;2.13;;;9.20;99.90;;;;;;5110151;27;20035;-49
2023/04/11 07:40:58;;;;;;;9.25;1.90;;;9.30;99.90;;;;;;5111359;28;20050;-49
2023/04/11 07:43:25;;;;;;;12.00;2.08;;;9.30;99.90;;;;;;5107679;28;20098;-48
2023/04/11 07:45:55;;;;;;;11.68;2.17;;;9.20;99.90;;;;;;5110304;28;20070;-49
2023/04/11 07:48:22;;;;;;;11.00;2.08;;;9.20;99.90;;;;;;5093322;28;20051;-51
2023/04/11 07:50:48;;;;;;;11.52;2.15;;;9.10;99.90;;;;;;5106374;28;20433;-49
2023/04/11 07:53:13;;;;;;;10.93;1.90;;;9.00;99.90;;;;;;5109031;28;20044;-49
2023/04/11 07:55:39;;;;;;;9.20;2.13;;;9.10;99.90;;;;;;5108228;28;20035;-50
2023/04/11 07:58:05;;;;;;;7.93;2.08;;;9.50;99.90;;;;;;5111000;28;20043;-50
2023/04/11 08:00:32;;;;;;;9.65;2.10;;;9.60;99.90;;;;;;5104847;28;20078;-50
2023/04/11 08:03:05;;;;;;;5.88;1.88;;;;;;;;;;5096921;28;20124;-49
2023/04/11 08:05:32;;;;;;;11.93;2.03;;;9.80;99.90;;;;;;5115617;28;20508;-50
2023/04/11 08:07:58;;;;;;;11.88;1.60;;;9.70;99.90;;;;;;5115911;28;20503;-51
2023/04/11 08:10:24;;;;;;;7.88;1.83;;;9.70;99.90;;;;;;5110135;28;20056;-49
2023/04/11 08:12:50;;;;;;;8.73;1.85;;;9.60;99.90;;;;;;5112016;27;20048;-49
2023/04/11 08:15:16;;;;;;;10.55;2.10;;;9.80;99.90;;;;;;5104968;28;20039;-48
2023/04/11 08:17:43;;;;;;;9.23;2.25;;;9.80;99.90;;;;;;5105273;28;20039;-48
2023/04/11 08:20:10;;;;;;;9.57;2.30;;;10.00;99.90;;;;;;5100778;27;20035;-50
2023/04/11 08:22:40;;;;;;;5.45;1.58;;;10.60;99.90;;;;;;5104336;27;20122;-47
2023/04/11 08:25:08;;;;;;;8.82;2.13;;;10.70;99.90;;;;;;5089030;28;20059;-47
2023/04/11 08:27:34;;;;;;;7.50;1.75;;;11.10;99.90;;;;;;5105429;27;20051;-47
2023/04/11 08:30:00;;;;;;;6.80;1.80;;;11.10;99.90;;;;;;5103890;27;20125;-47
2023/04/11 08:32:26;;;;;;;13.82;2.70;;;10.90;99.90;;;;;;5106320;28;20867;-47
2023/04/11 08:34:51;;;;;;;10.25;1.42;;;10.80;99.90;;;;;;5106465;27;20040;-48
2023/04/11 08:37:17;;;;;;;7.70;1.45;;;10.60;99.90;;;;;;5105505;27;20054;-49
2023/04/11 08:39:42;;;;;;;8.20;2.33;;;10.50;99.90;;;;;;5101694;27;20187;-50
2023/04/11 08:42:24;;;;;;;8.80;2.00;;;10.50;99.90;;;;;;5108282;27;20485;-48
2023/04/11 08:45:03;;;;;;;7.85;1.60;;;10.90;99.90;;;;;;5103956;28;20512;-47
2023/04/11 08:47:28;;;;;;;7.63;1.60;;;11.20;99.90;;;;;;5104013;28;20513;-48
2023/04/11 08:49:55;;;;;;;7.18;1.52;;;11.20;99.90;;;;;;5098769;27;20052;-49
2023/04/11 08:52:22;;;;;;;10.95;2.40;;;11.20;99.90;;;;;;5085658;28;20469;-48
2023/04/11 08:54:50;;;;;;;7.15;1.90;;;11.20;99.90;;;;;;5086986;28;20047;-47
2023/04/11 08:57:30;;;;;;;9.38;2.20;;;11.00;99.90;;;;;;5086401;28;20520;-48
2023/04/11 08:59:58;;;;;;;8.73;2.22;;;;;;;;;;5085199;28;20040;-48
2023/04/11 09:02:25;;;;;;;8.93;2.10;;;11.70;99.90;;;;;;5081460;28;20086;-48
2023/04/11 09:04:51;;;;;;;7.68;1.80;;;12.40;99.90;;;;;;5082697;28;20045;-48
2023/04/11 09:07:17;;;;;;;8.90;1.85;;;12.40;99.90;;;;;;5086706;28;20465;-48
2023/04/11 09:09:43;;;;;;;10.80;1.90;;;12.30;99.90;;;;;;5087769;28;20032;-49
2023/04/11 09:12:10;;;;;;;7.30;1.88;;;12.20;99.90;;;;;;5086516;28;20104;-51
2023/04/11 09:14:36;;;;;;;14.25;2.40;;;12.00;99.90;;;;;;5081490;28;20040;-49
2023/04/11 09:17:05;;;;;;;9.13;2.00;;;12.20;99.90;;;;;;5085602;28;20044;-48
2023/04/11 09:19:33;;;;;;;7.53;1.77;;;12.10;99.90;;;;;;5082375;28;20542;-49
2023/04/11 09:22:01;;;;;;;9.18;1.98;;;12.30;99.90;;;;;;5065914;28;20044;-49
2023/04/11 09:24:30;;;;;;;9.07;1.80;;;12.40;99.90;;;;;;5063618;28;20128;-48
2023/04/11 09:27:09;;;;;;;7.60;1.73;;;12.10;99.90;;;;;;5085630;28;20044;-48
2023/04/11 09:29:39;;;;;;;9.15;1.90;;;11.60;99.90;;;;;;5083852;28;20048;-48
2023/04/11 09:32:05;;;;;;;6.95;1.70;;;11.30;99.90;;;;;;5086100;28;20395;-48
2023/04/11 09:34:32;;;;;;;8.15;1.75;;;11.30;99.90;;;;;;5066995;28;20039;-48
2023/04/11 09:36:58;;;;;;;8.00;1.67;;;11.40;99.90;;;;;;5086459;28;20036;-48
2023/04/11 09:39:27;;;;;;;6.05;1.60;;;11.50;99.90;;;;;;5082584;28;20086;-49
2023/04/11 09:41:52;;;;;;;7.80;1.88;;;11.70;99.90;;;;;;5085379;28;20035;-48
2023/04/11 09:44:18;;;;;;;7.07;1.50;;;11.60;99.90;;;;;;5086051;28;20092;-49
2023/04/11 09:47:04;;;;;;;8.30;2.00;;;11.80;99.90;;;;;;5084191;28;20067;-50
2023/04/11 09:49:30;;;;;;;7.15;1.80;;;12.20;99.90;;;;;;5083484;27;20055;-48
2023/04/11 09:51:58;;;;;;;9.63;1.80;;;12.40;99.90;;;;;;5105523;27;20423;-48
2023/04/11 09:54:27;;;;;;;7.60;1.70;;;12.80;99.90;;;;;;5102119;28;20051;-51
2023/04/11 09:56:52;;;;;;;10.13;2.13;;;13.20;99.90;;;;;;5103511;27;20591;-50
2023/04/11 09:59:20;;;;;;;8.05;1.95;;;13.40;99.90;;;;;;5084260;28;20119;-49
2023/04/11 10:01:47;;;;;;;7.95;1.90;;;13.50;99.90;;;;;;5101722;27;20108;-49
2023/04/11 10:04:13;;;;;;;5.43;1.42;;;13.60;99.90;;;;;;5102121;28;20151;-49
2023/04/11 10:06:53;;;;;;;8.02;1.67;;;13.10;99.90;;;;;;5099863;28;20050;-51
2023/04/11 10:09:20;;;;;;;6.45;1.92;;;13.00;99.90;;;;;;5104107;28;20670;-52
2023/04/11 10:11:45;;;;;;;4.47;1.40;;;12.40;99.90;;;;;;5103762;27;20152;-48
2023/04/11 10:14:37;;;;;;;5.82;1.75;;;12.30;99.90;;;;;;5105241;27;20572;-49
2023/04/11 10:17:13;;;;;;;8.38;1.95;;;12.70;99.90;;;;;;5098314;28;22000;-51
2023/04/11 10:19:39;;;;;;;5.15;1.50;;;12.90;99.90;;;;;;5107416;27;20870;-52
2023/04/11 10:22:05;;;;;;;5.25;1.25;;;13.00;99.90;;;;;;5108885;28;20126;-50
2023/04/11 10:24:31;;;;;;;4.70;1.40;;;12.60;99.90;;;;;;5108079;28;20047;-50
2023/04/11 10:27:02;;;;;;;5.50;1.65;;;12.20;99.90;;;;;;5110469;28;20126;-49
2023/04/11 10:29:35;;;;;;;6.30;1.58;;;12.20;99.90;;;;;;5109368;28;20044;-48
2023/04/11 10:32:23;;;;;;;5.50;1.52;;;12.40;99.90;;;;;;5084148;28;20488;-49
2023/04/11 10:34:48;;;;;;;7.95;1.20;;;12.30;99.90;;;;;;5106207;28;20412;-49
2023/04/11 10:37:14;;;;;;;8.50;1.80;;;12.30;99.90;;;;;;5112771;28;20497;-48
2023/04/11 10:39:49;;;;;;;7.40;1.90;;;12.20;99.90;;;;;;5112755;28;20040;-47
2023/04/11 10:42:28;;;;;;;8.02;2.05;;;12.10;99.90;;;;;;5097222;28;20412;-50
2023/04/11 10:45:28;;;;;;;9.00;1.58;;;12.10;99.90;;;;;;5094876;28;20076;-49
2023/04/11 10:48:12;;;;;;;8.25;2.03;;;12.50;99.90;;;;;;5092946;28;20505;-50
2023/04/11 10:50:43;;;;;;;5.30;1.38;;;12.90;99.90;;;;;;5108459;28;20243;-48
2023/04/11 10:53:32;;;;;;;6.07;1.70;;;13.30;99.90;;;;;;5112163;28;20035;-49
2023/04/11 10:55:58;;;;;;;7.47;1.50;;;13.60;99.90;;;;;;5075590;28;20044;-48
2023/04/11 10:58:38;;;;;;;5.43;1.58;;;13.40;99.90;;;;;;5116970;28;20039;-48
2023/04/11 11:01:18;;;;;;;6.57;1.73;;;13.10;99.90;;;;;;5109601;27;20318;-48
2023/04/11 11:03:52;;;;;;;8.38;1.90;;;13.00;99.90;;;;;;5117266;28;20107;-48
2023/04/11 11:06:18;;;;;;;7.05;1.67;;;13.10;99.90;;;;;;5115343;27;20044;-50
2023/04/11 11:08:45;;;;;;;8.00;1.77;;;13.30;99.90;;;;;;5090900;27;20139;-49
2023/04/11 11:11:12;;;;;;;6.30;1.50;;;13.50;99.90;;;;;;5114467;27;20095;-48
2023/04/11 11:13:49;;;;;;;8.13;1.65;;;13.50;99.90;;;;;;5112756;27;20063;-49
2023/04/11 11:16:20;;;;;;;8.75;2.00;;;14.00;99.90;;;;;;5097442;27;20439;-49
2023/04/11 11:18:54;;;;;;;7.22;1.77;;;13.90;99.90;;;;;;5110841;28;20105;-48
2023/04/11 11:21:23;;;;;;;6.38;1.48;;;14.10;99.90;;;;;;5113907;28;20444;-48
2023/04/11 11:24:06;;;;;;;7.28;1.60;;;14.20;99.90;;;;;;5108816;28;20050;-49
2023/04/11 11:26:39;;;;;;;10.20;1.58;;;14.40;99.90;;;;;;5106181;27;20035;-48
2023/04/11 11:29:06;;;;;;;5.05;1.20;;;14.00;99.90;;;;;;5112818;27;20431;-48
2023/04/11 11:31:44;;;;;;;5.95;1.50;;;13.80;99.90;;;;;;5116162;28;20127;-48
2023/04/11 11:34:10;;;;;;;5.90;1.17;;;13.80;99.90;;;;;;5113203;27;20382;-48
2023/04/11 11:36:41;;;;;;;5.68;1.33;;;13.70;99.90;;;;;;5110688;28;20036;-49
2023/04/11 11:39:07;;;;;;;5.07;1.48;;;13.70;99.90;;;;;;5109222;28;20424;-48
2023/04/11 11:41:34;;;;;;;3.83;1.52;;;13.40;99.90;;;;;;5108713;27;20040;-49
2023/04/11 11:44:04;;;;;;;6.75;1.10;;;13.50;99.90;;;;;;5111260;28;20039;-48
2023/04/11 11:46:32;;;;;;;6.78;1.50;;;13.70;99.90;;;;;;5108581;28;20038;-48
2023/04/11 11:49:02;;;;;;;;;;;13.80;99.90;;;;;;5108297;28;20046;-48
2023/04/11 11:51:47;;;;;;;5.57;1.45;;;13.50;99.90;;;;;;5090450;28;19935;-47
2023/04/11 11:54:13;;;;;;;4.85;1.45;;;13.00;99.90;;;;;;5089242;28;20132;-51
2023/04/11 11:56:39;;;;;;;7.75;1.90;;;13.00;99.90;;;;;;5070733;28;20147;-52
2023/04/11 11:59:06;;;;;;;6.38;1.50;;;13.00;99.90;;;;;;5087550;28;20085;-49
2023/04/11 12:01:36;;;;;;;7.10;1.65;;;13.50;99.90;;;;;;5090289;28;20036;-48
2023/04/11 12:04:05;;;;;;;10.52;1.50;;;13.70;99.90;;;;;;5073134;28;22192;-49
2023/04/11 12:06:31;;;;;;;9.02;1.58;;;13.70;99.90;;;;;;5071146;28;20058;-48
2023/04/11 12:09:07;;;;;;;7.38;1.40;;;13.70;99.90;;;;;;5090963;28;20062;-49
2023/04/11 12:11:40;;;;;;;5.80;1.83;;;13.60;99.90;;;;;;5090368;28;20044;-48
2023/04/11 12:14:07;;;;;;;7.50;2.17;;;14.00;99.90;;;;;;5088457;28;20477;-53
2023/04/11 12:16:33;;;;;;;6.57;1.47;;;14.10;99.90;;;;;;5072146;28;20047;-49
2023/04/11 12:19:02;;;;;;;11.65;1.83;;;14.10;99.90;;;;;;5088443;28;20066;-48
2023/04/11 12:21:29;;;;;;;7.68;1.63;;;14.20;99.90;;;;;;5090266;28;20043;-49
2023/04/11 12:23:54;;;;;;;6.88;1.58;;;14.30;99.90;;;;;;5087901;28;20044;-52
2023/04/11 12:26:20;;;;;;;8.65;1.95;;;14.20;99.90;;;;;;5086873;28;20500;-50
2023/04/11 12:28:46;;;;;;;4.15;1.25;;;14.40;99.90;;;;;;5088783;28;20044;-50
2023/04/11 12:31:13;;;;;;;6.80;1.55;;;14.20;99.90;;;;;;5090822;28;20046;-50
2023/04/11 12:33:38;;;;;;;10.30;2.03;;;14.30;99.90;;;;;;5088222;28;20145;-51
2023/04/11 12:36:07;;;;;;;5.97;1.45;;;14.10;99.90;;;;;;5090972;28;20735;-51
2023/04/11 12:38:33;;;;;;;5.90;1.48;;;14.00;99.90;;;;;;5089492;28;20182;-49
2023/04/11 12:40:59;;;;;;;6.30;1.50;;;13.80;99.90;;;;;;5089634;28;20123;-50
2023/04/11 12:43:25;;;;;;;6.25;1.73;;;13.90;99.90;;;;;;5089426;28;20051;-50
2023/04/11 12:45:51;;;;;;;6.03;1.50;;;14.00;99.90;;;;;;5089239;28;20184;-52
2023/04/11 12:48:16;;;;;;;6.68;1.88;;;14.00;99.90;;;;;;5089881;28;20051;-52
2023/04/11 12:50:42;;;;;;;7.50;1.42;;;14.00;99.90;;;;;;5096173;28;20043;-49
2023/04/11 12:53:07;;;;;;;5.93;1.70;;;14.00;99.90;;;;;;5102311;28;20120;-48
2023/04/11 12:55:33;;;;;;;6.32;1.90;;;13.60;99.90;;;;;;5098293;28;20067;-50
2023/04/11 12:58:00;;;;;;;7.32;1.80;;;13.60;99.90;;;;;;5104629;28;20505;-49